sensor_id;sensor_type;location;lat;lon;timestamp;pressure;altitude;pressure_sealevel;temperature;humidity
28701;BME280;15877;52.344;16.790;2023-10-08T00:00:02;100543.64;;;14.17;89.66
28701;BME280;15877;52.344;16.790;2023-10-08T00:03:15;100539.90;;;14.09;90.03
28701;BME280;15877;52.344;16.790;2023-10-08T00:05:49;100550.56;;;14.14;90.03
28701;BME280;15877;52.344;16.790;2023-10-08T00:08:21;100562.35;;;14.21;89.27
28701;BME280;15877;52.344;16.790;2023-10-08T00:10:54;100566.91;;;14.20;89.43
28701;BME280;15877;52.344;16.790;2023-10-08T00:13:28;100565.05;;;14.18;89.22
28701;BME280;15877;52.344;16.790;2023-10-08T00:16:03;100581.56;;;14.10;89.84
28701;BME280;15877;52.344;16.790;2023-10-08T00:18:40;100580.27;;;14.07;90.54
28701;BME280;15877;52.344;16.790;2023-10-08T00:21:14;100590.52;;;14.18;89.99
28701;BME280;15877;52.344;16.790;2023-10-08T00:23:50;100597.26;;;14.21;89.66
28701;BME280;15877;52.344;16.790;2023-10-08T00:26:24;100599.22;;;14.09;90.17
28701;BME280;15877;52.344;16.790;2023-10-08T00:29:03;100584.80;;;14.05;90.75
28701;BME280;15877;52.344;16.790;2023-10-08T00:31:37;100570.69;;;13.98;91.02
28701;BME280;15877;52.344;16.790;2023-10-08T00:34:12;100585.59;;;13.97;91.47
28701;BME280;15877;52.344;16.790;2023-10-08T00:36:48;100582.07;;;14.04;91.36
28701;BME280;15877;52.344;16.790;2023-10-08T00:39:21;100584.69;;;14.10;90.93
28701;BME280;15877;52.344;16.790;2023-10-08T00:41:57;100569.02;;;14.08;90.29
28701;BME280;15877;52.344;16.790;2023-10-08T00:44:31;100578.30;;;14.11;90.31
28701;BME280;15877;52.344;16.790;2023-10-08T00:47:08;100576.44;;;14.07;90.87
28701;BME280;15877;52.344;16.790;2023-10-08T00:49:42;100595.45;;;14.09;90.79
28701;BME280;15877;52.344;16.790;2023-10-08T00:52:25;100598.31;;;14.08;90.67
28701;BME280;15877;52.344;16.790;2023-10-08T00:55:04;100590.45;;;14.12;90.61
28701;BME280;15877;52.344;16.790;2023-10-08T00:58:01;100595.88;;;14.11;90.29
28701;BME280;15877;52.344;16.790;2023-10-08T01:00:43;100595.78;;;14.09;90.32
28701;BME280;15877;52.344;16.790;2023-10-08T01:03:16;100581.95;;;14.00;90.65
28701;BME280;15877;52.344;16.790;2023-10-08T01:05:51;100574.84;;;14.08;90.50
28701;BME280;15877;52.344;16.790;2023-10-08T01:08:24;100575.78;;;14.05;90.14
28701;BME280;15877;52.344;16.790;2023-10-08T01:11:19;100579.48;;;14.02;89.98
28701;BME280;15877;52.344;16.790;2023-10-08T01:13:53;100570.52;;;13.90;90.03
28701;BME280;15877;52.344;16.790;2023-10-08T01:16:26;100577.13;;;13.97;90.46
28701;BME280;15877;52.344;16.790;2023-10-08T01:18:59;100590.75;;;13.86;91.22
28701;BME280;15877;52.344;16.790;2023-10-08T01:21:34;100602.21;;;13.92;91.28
28701;BME280;15877;52.344;16.790;2023-10-08T01:24:09;100603.20;;;13.87;91.31
28701;BME280;15877;52.344;16.790;2023-10-08T01:26:47;100613.08;;;13.80;91.94
28701;BME280;15877;52.344;16.790;2023-10-08T01:29:20;100626.21;;;13.77;92.02
28701;BME280;15877;52.344;16.790;2023-10-08T01:31:52;100628.98;;;13.62;92.51
28701;BME280;15877;52.344;16.790;2023-10-08T01:34:26;100623.23;;;13.68;92.48
28701;BME280;15877;52.344;16.790;2023-10-08T01:37:06;100611.30;;;13.78;91.74
28701;BME280;15877;52.344;16.790;2023-10-08T01:39:43;100631.66;;;13.78;90.88
28701;BME280;15877;52.344;16.790;2023-10-08T01:42:16;100644.50;;;13.78;90.62
28701;BME280;15877;52.344;16.790;2023-10-08T01:44:50;100653.41;;;13.82;90.14
28701;BME280;15877;52.344;16.790;2023-10-08T01:47:26;100666.48;;;13.76;90.17
28701;BME280;15877;52.344;16.790;2023-10-08T01:49:59;100671.14;;;13.66;90.70
28701;BME280;15877;52.344;16.790;2023-10-08T01:52:36;100674.42;;;13.67;90.49
28701;BME280;15877;52.344;16.790;2023-10-08T01:55:11;100690.34;;;13.63;90.61
28701;BME280;15877;52.344;16.790;2023-10-08T01:57:49;100695.13;;;13.58;90.40
28701;BME280;15877;52.344;16.790;2023-10-08T02:00:23;100691.52;;;13.62;90.95
28701;BME280;15877;52.344;16.790;2023-10-08T02:02:57;100684.81;;;13.62;90.66
28701;BME280;15877;52.344;16.790;2023-10-08T02:05:32;100683.75;;;13.72;90.32
28701;BME280;15877;52.344;16.790;2023-10-08T02:08:05;100685.33;;;13.71;90.16
28701;BME280;15877;52.344;16.790;2023-10-08T02:10:39;100704.46;;;13.70;89.77
28701;BME280;15877;52.344;16.790;2023-10-08T02:13:12;100714.09;;;13.68;89.43
28701;BME280;15877;52.344;16.790;2023-10-08T02:15:48;100697.98;;;13.68;89.58
28701;BME280;15877;52.344;16.790;2023-10-08T02:18:22;100701.67;;;13.64;89.42
28701;BME280;15877;52.344;16.790;2023-10-08T02:20:57;100683.30;;;13.56;89.72
28701;BME280;15877;52.344;16.790;2023-10-08T02:23:31;100698.13;;;13.66;89.33
28701;BME280;15877;52.344;16.790;2023-10-08T02:26:06;100713.36;;;13.67;89.33
28701;BME280;15877;52.344;16.790;2023-10-08T02:28:39;100705.73;;;13.58;89.01
28701;BME280;15877;52.344;16.790;2023-10-08T02:31:11;100709.55;;;13.62;88.70
28701;BME280;15877;52.344;16.790;2023-10-08T02:33:43;100724.27;;;13.55;89.14
28701;BME280;15877;52.344;16.790;2023-10-08T02:36:15;100742.00;;;13.56;89.30
28701;BME280;15877;52.344;16.790;2023-10-08T02:38:48;100758.03;;;13.67;88.60
28701;BME280;15877;52.344;16.790;2023-10-08T02:41:20;100766.89;;;13.73;87.33
28701;BME280;15877;52.344;16.790;2023-10-08T02:43:53;100747.55;;;13.71;87.06
28701;BME280;15877;52.344;16.790;2023-10-08T02:46:30;100729.54;;;13.71;86.95
28701;BME280;15877;52.344;16.790;2023-10-08T02:49:03;100725.32;;;13.67;86.89
28701;BME280;15877;52.344;16.790;2023-10-08T02:51:37;100736.44;;;13.63;86.92
28701;BME280;15877;52.344;16.790;2023-10-08T02:54:10;100761.11;;;13.65;87.39
28701;BME280;15877;52.344;16.790;2023-10-08T02:56:48;100768.70;;;13.65;86.86
28701;BME280;15877;52.344;16.790;2023-10-08T02:59:23;100770.83;;;13.58;87.18
28701;BME280;15877;52.344;16.790;2023-10-08T03:01:55;100792.20;;;13.59;87.45
28701;BME280;15877;52.344;16.790;2023-10-08T03:04:27;100784.56;;;13.60;87.02
28701;BME280;15877;52.344;16.790;2023-10-08T03:07:00;100779.92;;;13.59;87.11
28701;BME280;15877;52.344;16.790;2023-10-08T03:09:33;100791.69;;;13.66;86.66
28701;BME280;15877;52.344;16.790;2023-10-08T03:12:06;100808.15;;;13.69;86.36
28701;BME280;15877;52.344;16.790;2023-10-08T03:14:40;100814.15;;;13.64;86.08
28701;BME280;15877;52.344;16.790;2023-10-08T03:17:21;100820.95;;;13.66;86.35
28701;BME280;15877;52.344;16.790;2023-10-08T03:19:53;100822.54;;;13.66;86.06
28701;BME280;15877;52.344;16.790;2023-10-08T03:22:32;100816.96;;;13.61;86.10
28701;BME280;15877;52.344;16.790;2023-10-08T03:25:05;100785.52;;;13.54;85.92
28701;BME280;15877;52.344;16.790;2023-10-08T03:27:47;100788.58;;;13.61;85.83
28701;BME280;15877;52.344;16.790;2023-10-08T03:30:19;100809.76;;;13.64;85.60
28701;BME280;15877;52.344;16.790;2023-10-08T03:32:52;100823.60;;;13.66;85.37
28701;BME280;15877;52.344;16.790;2023-10-08T03:35:29;100823.50;;;13.76;84.34
28701;BME280;15877;52.344;16.790;2023-10-08T03:38:08;100825.27;;;13.72;83.50
28701;BME280;15877;52.344;16.790;2023-10-08T03:40:52;100830.20;;;13.70;83.15
28701;BME280;15877;52.344;16.790;2023-10-08T03:43:28;100846.77;;;13.73;83.01
28701;BME280;15877;52.344;16.790;2023-10-08T03:46:17;100854.23;;;13.71;82.83
28701;BME280;15877;52.344;16.790;2023-10-08T03:48:50;100835.58;;;13.66;83.01
28701;BME280;15877;52.344;16.790;2023-10-08T03:51:23;100845.77;;;13.71;82.30
28701;BME280;15877;52.344;16.790;2023-10-08T03:54:01;100843.27;;;13.64;82.09
28701;BME280;15877;52.344;16.790;2023-10-08T03:56:47;100853.82;;;13.62;80.99
28701;BME280;15877;52.344;16.790;2023-10-08T03:59:22;100858.58;;;13.55;79.55
28701;BME280;15877;52.344;16.790;2023-10-08T04:02:05;100861.74;;;13.58;78.35
28701;BME280;15877;52.344;16.790;2023-10-08T04:04:45;100866.41;;;13.56;78.19
28701;BME280;15877;52.344;16.790;2023-10-08T04:07:22;100871.80;;;13.53;77.65
28701;BME280;15877;52.344;16.790;2023-10-08T04:10:10;100887.20;;;13.53;76.93
28701;BME280;15877;52.344;16.790;2023-10-08T04:13:10;100899.02;;;13.50;77.69
28701;BME280;15877;52.344;16.790;2023-10-08T04:15:45;100909.08;;;13.50;77.40
28701;BME280;15877;52.344;16.790;2023-10-08T04:18:18;100920.77;;;13.48;77.46
28701;BME280;15877;52.344;16.790;2023-10-08T04:20:51;100915.13;;;13.37;77.28
28701;BME280;15877;52.344;16.790;2023-10-08T04:23:36;100926.98;;;13.43;76.80
28701;BME280;15877;52.344;16.790;2023-10-08T04:26:09;100943.00;;;13.44;77.07
28701;BME280;15877;52.344;16.790;2023-10-08T04:28:41;100946.34;;;13.42;77.02
28701;BME280;15877;52.344;16.790;2023-10-08T04:31:14;100957.90;;;13.38;76.63
28701;BME280;15877;52.344;16.790;2023-10-08T04:33:46;100962.02;;;13.37;76.79
28701;BME280;15877;52.344;16.790;2023-10-08T04:36:19;100972.73;;;13.33;76.82
28701;BME280;15877;52.344;16.790;2023-10-08T04:38:51;100980.05;;;13.21;76.85
28701;BME280;15877;52.344;16.790;2023-10-08T04:41:26;100984.49;;;13.12;76.36
28701;BME280;15877;52.344;16.790;2023-10-08T04:44:01;100991.21;;;13.10;75.61
28701;BME280;15877;52.344;16.790;2023-10-08T04:46:39;100993.80;;;13.04;75.05
28701;BME280;15877;52.344;16.790;2023-10-08T04:49:23;100990.55;;;12.98;74.19
28701;BME280;15877;52.344;16.790;2023-10-08T04:52:00;100998.72;;;12.93;74.14
28701;BME280;15877;52.344;16.790;2023-10-08T04:54:36;101010.12;;;12.93;73.16
28701;BME280;15877;52.344;16.790;2023-10-08T04:57:11;101019.58;;;12.92;73.07
28701;BME280;15877;52.344;16.790;2023-10-08T04:59:48;101017.79;;;12.90;72.96
28701;BME280;15877;52.344;16.790;2023-10-08T05:02:22;101024.20;;;12.89;72.89
28701;BME280;15877;52.344;16.790;2023-10-08T05:05:07;101031.48;;;12.90;72.87
28701;BME280;15877;52.344;16.790;2023-10-08T05:08:07;101034.13;;;12.90;72.81
28701;BME280;15877;52.344;16.790;2023-10-08T05:11:03;101034.72;;;12.82;72.13
28701;BME280;15877;52.344;16.790;2023-10-08T05:13:56;101042.66;;;12.81;72.06
28701;BME280;15877;52.344;16.790;2023-10-08T05:16:36;101048.62;;;12.73;71.21
28701;BME280;15877;52.344;16.790;2023-10-08T05:19:16;101048.26;;;12.68;71.10
28701;BME280;15877;52.344;16.790;2023-10-08T05:22:19;101058.63;;;12.65;71.58
28701;BME280;15877;52.344;16.790;2023-10-08T05:25:15;101068.10;;;12.65;72.24
28701;BME280;15877;52.344;16.790;2023-10-08T05:28:07;101074.44;;;12.63;71.86
28701;BME280;15877;52.344;16.790;2023-10-08T05:30:43;101081.55;;;12.61;72.19
28701;BME280;15877;52.344;16.790;2023-10-08T05:33:24;101094.70;;;12.58;71.26
28701;BME280;15877;52.344;16.790;2023-10-08T05:36:02;101100.47;;;12.53;71.06
28701;BME280;15877;52.344;16.790;2023-10-08T05:38:41;101108.98;;;12.53;71.18
28701;BME280;15877;52.344;16.790;2023-10-08T05:41:32;101115.40;;;12.45;71.49
28701;BME280;15877;52.344;16.790;2023-10-08T05:44:22;101113.64;;;12.42;71.27
28701;BME280;15877;52.344;16.790;2023-10-08T05:47:10;101117.20;;;12.44;71.85
28701;BME280;15877;52.344;16.790;2023-10-08T05:50:09;101118.70;;;12.44;72.29
28701;BME280;15877;52.344;16.790;2023-10-08T05:52:56;101125.58;;;12.45;71.13
28701;BME280;15877;52.344;16.790;2023-10-08T05:55:46;101136.48;;;12.48;70.22
28701;BME280;15877;52.344;16.790;2023-10-08T05:58:33;101140.38;;;12.44;69.48
28701;BME280;15877;52.344;16.790;2023-10-08T06:01:16;101146.29;;;12.45;69.37
28701;BME280;15877;52.344;16.790;2023-10-08T06:04:10;101148.27;;;12.35;69.28
28701;BME280;15877;52.344;16.790;2023-10-08T06:07:13;101159.23;;;12.35;68.90
28701;BME280;15877;52.344;16.790;2023-10-08T06:09:54;101165.41;;;12.27;68.78
28701;BME280;15877;52.344;16.790;2023-10-08T06:12:44;101161.53;;;12.22;68.79
28701;BME280;15877;52.344;16.790;2023-10-08T06:15:21;101167.41;;;12.21;68.81
28701;BME280;15877;52.344;16.790;2023-10-08T06:18:08;101171.90;;;12.25;68.88
28701;BME280;15877;52.344;16.790;2023-10-08T06:20:41;101171.46;;;12.27;68.75
28701;BME280;15877;52.344;16.790;2023-10-08T06:23:17;101181.29;;;12.25;68.61
28701;BME280;15877;52.344;16.790;2023-10-08T06:25:51;101189.46;;;12.21;68.85
28701;BME280;15877;52.344;16.790;2023-10-08T06:28:28;101195.00;;;12.17;68.25
28701;BME280;15877;52.344;16.790;2023-10-08T06:31:01;101201.65;;;12.07;68.67
28701;BME280;15877;52.344;16.790;2023-10-08T06:33:37;101202.67;;;12.02;69.02
28701;BME280;15877;52.344;16.790;2023-10-08T06:36:12;101214.83;;;12.09;69.18
28701;BME280;15877;52.344;16.790;2023-10-08T06:38:49;101225.53;;;11.97;69.04
28701;BME280;15877;52.344;16.790;2023-10-08T06:41:22;101226.57;;;11.97;69.28
28701;BME280;15877;52.344;16.790;2023-10-08T06:44:21;101236.52;;;12.00;69.31
28701;BME280;15877;52.344;16.790;2023-10-08T06:46:54;101237.74;;;11.99;69.37
28701;BME280;15877;52.344;16.790;2023-10-08T06:49:28;101242.51;;;12.06;69.10
28701;BME280;15877;52.344;16.790;2023-10-08T06:52:03;101240.99;;;12.00;69.20
28701;BME280;15877;52.344;16.790;2023-10-08T06:54:35;101250.16;;;12.03;69.48
28701;BME280;15877;52.344;16.790;2023-10-08T06:57:08;101257.80;;;12.15;68.97
28701;BME280;15877;52.344;16.790;2023-10-08T06:59:45;101268.27;;;12.13;68.69
28701;BME280;15877;52.344;16.790;2023-10-08T07:02:21;101259.14;;;12.09;68.16
28701;BME280;15877;52.344;16.790;2023-10-08T07:04:54;101269.70;;;12.19;68.40
28701;BME280;15877;52.344;16.790;2023-10-08T07:07:27;101276.69;;;12.21;68.40
28701;BME280;15877;52.344;16.790;2023-10-08T07:10:03;101281.56;;;12.19;68.09
28701;BME280;15877;52.344;16.790;2023-10-08T07:12:35;101281.13;;;12.18;68.20
28701;BME280;15877;52.344;16.790;2023-10-08T07:15:09;101288.55;;;12.27;68.25
28701;BME280;15877;52.344;16.790;2023-10-08T07:17:43;101287.23;;;12.25;67.41
28701;BME280;15877;52.344;16.790;2023-10-08T07:20:16;101288.72;;;12.24;67.87
28701;BME280;15877;52.344;16.790;2023-10-08T07:22:52;101290.34;;;12.25;67.69
28701;BME280;15877;52.344;16.790;2023-10-08T07:25:26;101292.33;;;12.19;68.48
28701;BME280;15877;52.344;16.790;2023-10-08T07:28:08;101301.89;;;12.28;67.71
28701;BME280;15877;52.344;16.790;2023-10-08T07:30:43;101303.65;;;12.20;66.68
28701;BME280;15877;52.344;16.790;2023-10-08T07:33:15;101305.38;;;12.28;66.97
28701;BME280;15877;52.344;16.790;2023-10-08T07:35:56;101304.13;;;12.28;66.47
28701;BME280;15877;52.344;16.790;2023-10-08T07:38:34;101306.89;;;12.34;65.28
28701;BME280;15877;52.344;16.790;2023-10-08T07:41:07;101310.52;;;12.44;65.19
28701;BME280;15877;52.344;16.790;2023-10-08T07:43:39;101308.96;;;12.56;63.40
28701;BME280;15877;52.344;16.790;2023-10-08T07:46:12;101315.27;;;12.54;62.90
28701;BME280;15877;52.344;16.790;2023-10-08T07:48:46;101317.82;;;12.60;62.51
28701;BME280;15877;52.344;16.790;2023-10-08T07:51:19;101319.70;;;12.70;62.09
28701;BME280;15877;52.344;16.790;2023-10-08T07:53:53;101319.50;;;12.77;62.03
28701;BME280;15877;52.344;16.790;2023-10-08T07:56:27;101327.71;;;12.86;62.01
28701;BME280;15877;52.344;16.790;2023-10-08T07:59:01;101327.68;;;12.91;62.75
28701;BME280;15877;52.344;16.790;2023-10-08T08:01:39;101327.53;;;12.94;61.63
28701;BME280;15877;52.344;16.790;2023-10-08T08:04:12;101327.49;;;12.99;61.06
28701;BME280;15877;52.344;16.790;2023-10-08T08:06:52;101313.48;;;12.90;59.78
28701;BME280;15877;52.344;16.790;2023-10-08T08:09:26;101335.85;;;13.09;60.44
28701;BME280;15877;52.344;16.790;2023-10-08T08:11:59;101339.31;;;13.10;58.34
28701;BME280;15877;52.344;16.790;2023-10-08T08:14:39;101344.52;;;13.14;59.66
28701;BME280;15877;52.344;16.790;2023-10-08T08:17:12;101342.02;;;13.10;59.21
28701;BME280;15877;52.344;16.790;2023-10-08T08:19:49;101358.56;;;13.24;57.53
28701;BME280;15877;52.344;16.790;2023-10-08T08:22:23;101363.02;;;13.30;56.29
28701;BME280;15877;52.344;16.790;2023-10-08T08:25:02;101372.85;;;13.34;56.33
28701;BME280;15877;52.344;16.790;2023-10-08T08:27:46;101373.73;;;13.39;57.05
28701;BME280;15877;52.344;16.790;2023-10-08T08:30:20;101382.84;;;13.44;56.96
28701;BME280;15877;52.344;16.790;2023-10-08T08:32:58;101387.27;;;13.51;56.45
28701;BME280;15877;52.344;16.790;2023-10-08T08:35:32;101392.87;;;13.58;56.62
28701;BME280;15877;52.344;16.790;2023-10-08T08:38:04;101397.71;;;13.64;56.57
28701;BME280;15877;52.344;16.790;2023-10-08T08:40:40;101408.14;;;13.69;56.74
28701;BME280;15877;52.344;16.790;2023-10-08T08:43:13;101412.27;;;13.72;55.88
28701;BME280;15877;52.344;16.790;2023-10-08T08:45:45;101414.58;;;13.68;55.47
28701;BME280;15877;52.344;16.790;2023-10-08T08:48:21;101418.05;;;13.71;54.99
28701;BME280;15877;52.344;16.790;2023-10-08T08:50:54;101420.89;;;13.62;54.69
28701;BME280;15877;52.344;16.790;2023-10-08T08:53:27;101424.72;;;13.62;54.19
28701;BME280;15877;52.344;16.790;2023-10-08T08:56:00;101417.25;;;13.67;55.76
28701;BME280;15877;52.344;16.790;2023-10-08T08:58:33;101415.02;;;13.77;54.94
28701;BME280;15877;52.344;16.790;2023-10-08T09:01:08;101417.14;;;13.88;55.37
28701;BME280;15877;52.344;16.790;2023-10-08T09:03:44;101415.77;;;13.97;54.02
28701;BME280;15877;52.344;16.790;2023-10-08T09:06:19;101424.19;;;14.05;53.51
28701;BME280;15877;52.344;16.790;2023-10-08T09:08:51;101423.48;;;14.05;54.27
28701;BME280;15877;52.344;16.790;2023-10-08T09:11:27;101424.39;;;14.08;54.17
28701;BME280;15877;52.344;16.790;2023-10-08T09:14:03;101432.20;;;14.16;52.75
28701;BME280;15877;52.344;16.790;2023-10-08T09:16:36;101428.22;;;14.21;53.37
28701;BME280;15877;52.344;16.790;2023-10-08T09:19:10;101427.41;;;14.24;53.13
28701;BME280;15877;52.344;16.790;2023-10-08T09:22:03;101429.70;;;14.35;52.51
28701;BME280;15877;52.344;16.790;2023-10-08T09:24:37;101432.27;;;14.42;52.74
28701;BME280;15877;52.344;16.790;2023-10-08T09:27:10;101432.48;;;14.38;51.41
28701;BME280;15877;52.344;16.790;2023-10-08T09:29:45;101428.70;;;14.31;50.47
28701;BME280;15877;52.344;16.790;2023-10-08T09:32:18;101446.23;;;14.34;49.66
28701;BME280;15877;52.344;16.790;2023-10-08T09:34:55;101445.41;;;14.25;49.89
28701;BME280;15877;52.344;16.790;2023-10-08T09:37:29;101447.44;;;14.35;50.78
28701;BME280;15877;52.344;16.790;2023-10-08T09:40:02;101449.73;;;14.41;50.96
28701;BME280;15877;52.344;16.790;2023-10-08T09:42:39;101452.60;;;14.41;48.18
28701;BME280;15877;52.344;16.790;2023-10-08T09:45:15;101440.98;;;14.57;48.97
28701;BME280;15877;52.344;16.790;2023-10-08T09:47:52;101448.00;;;14.68;48.87
28701;BME280;15877;52.344;16.790;2023-10-08T09:50:29;101443.71;;;14.70;48.81
28701;BME280;15877;52.344;16.790;2023-10-08T09:53:10;101446.19;;;14.73;48.64
28701;BME280;15877;52.344;16.790;2023-10-08T09:55:52;101453.61;;;14.73;47.82
28701;BME280;15877;52.344;16.790;2023-10-08T09:58:28;101462.21;;;14.67;47.48
28701;BME280;15877;52.344;16.790;2023-10-08T10:00:59;101450.42;;;14.55;46.47
28701;BME280;15877;52.344;16.790;2023-10-08T10:03:32;101460.88;;;14.58;45.83
28701;BME280;15877;52.344;16.790;2023-10-08T10:06:13;101462.46;;;14.57;46.03
28701;BME280;15877;52.344;16.790;2023-10-08T10:08:47;101461.47;;;14.70;46.59
28701;BME280;15877;52.344;16.790;2023-10-08T10:11:20;101458.17;;;14.69;47.26
28701;BME280;15877;52.344;16.790;2023-10-08T10:13:59;101470.80;;;14.84;48.79
28701;BME280;15877;52.344;16.790;2023-10-08T10:16:32;101467.39;;;14.89;47.73
28701;BME280;15877;52.344;16.790;2023-10-08T10:19:08;101455.80;;;14.86;48.97
28701;BME280;15877;52.344;16.790;2023-10-08T10:21:48;101464.27;;;14.97;47.82
28701;BME280;15877;52.344;16.790;2023-10-08T10:24:35;101474.05;;;15.05;47.38
28701;BME280;15877;52.344;16.790;2023-10-08T10:27:16;101476.54;;;15.18;48.10
28701;BME280;15877;52.344;16.790;2023-10-08T10:29:48;101476.83;;;15.13;47.84
28701;BME280;15877;52.344;16.790;2023-10-08T10:32:20;101475.75;;;15.14;47.79
28701;BME280;15877;52.344;16.790;2023-10-08T10:34:53;101467.14;;;15.08;47.17
28701;BME280;15877;52.344;16.790;2023-10-08T10:37:27;101474.98;;;15.01;47.50
28701;BME280;15877;52.344;16.790;2023-10-08T10:40:12;101475.58;;;14.98;47.88
28701;BME280;15877;52.344;16.790;2023-10-08T10:42:48;101479.30;;;15.01;48.88
28701;BME280;15877;52.344;16.790;2023-10-08T10:45:24;101477.98;;;15.06;47.42
28701;BME280;15877;52.344;16.790;2023-10-08T10:48:11;101481.50;;;15.22;46.07
28701;BME280;15877;52.344;16.790;2023-10-08T10:50:53;101481.88;;;15.30;45.44
28701;BME280;15877;52.344;16.790;2023-10-08T10:53:52;101471.22;;;15.08;45.37
28701;BME280;15877;52.344;16.790;2023-10-08T10:56:33;101487.63;;;15.05;45.15
28701;BME280;15877;52.344;16.790;2023-10-08T10:59:11;101491.38;;;15.08;45.72
28701;BME280;15877;52.344;16.790;2023-10-08T11:01:58;101493.20;;;14.93;46.15
28701;BME280;15877;52.344;16.790;2023-10-08T11:04:39;101491.20;;;14.78;45.99
28701;BME280;15877;52.344;16.790;2023-10-08T11:07:20;101492.98;;;14.71;45.73
28701;BME280;15877;52.344;16.790;2023-10-08T11:09:54;101480.02;;;14.78;45.88
28701;BME280;15877;52.344;16.790;2023-10-08T11:12:27;101487.72;;;14.75;46.04
28701;BME280;15877;52.344;16.790;2023-10-08T11:15:14;101483.45;;;14.78;46.52
28701;BME280;15877;52.344;16.790;2023-10-08T11:17:46;101490.87;;;14.81;46.72
28701;BME280;15877;52.344;16.790;2023-10-08T11:20:26;101493.30;;;14.67;44.96
28701;BME280;15877;52.344;16.790;2023-10-08T11:22:59;101487.81;;;14.73;44.02
28701;BME280;15877;52.344;16.790;2023-10-08T11:25:56;101482.15;;;14.69;44.19
28701;BME280;15877;52.344;16.790;2023-10-08T11:28:34;101483.42;;;14.61;43.83
28701;BME280;15877;52.344;16.790;2023-10-08T11:31:08;101484.14;;;14.44;44.08
28701;BME280;15877;52.344;16.790;2023-10-08T11:33:43;101482.23;;;14.44;44.07
28701;BME280;15877;52.344;16.790;2023-10-08T11:36:26;101479.16;;;14.90;44.71
28701;BME280;15877;52.344;16.790;2023-10-08T11:39:10;101473.65;;;15.18;45.46
28701;BME280;15877;52.344;16.790;2023-10-08T11:42:03;101467.83;;;15.23;44.88
28701;BME280;15877;52.344;16.790;2023-10-08T11:44:47;101471.11;;;15.22;43.92
28701;BME280;15877;52.344;16.790;2023-10-08T11:47:23;101474.08;;;15.19;43.75
28701;BME280;15877;52.344;16.790;2023-10-08T11:49:56;101473.40;;;15.21;43.58
28701;BME280;15877;52.344;16.790;2023-10-08T11:52:41;101481.59;;;15.03;43.43
28701;BME280;15877;52.344;16.790;2023-10-08T11:55:14;101479.33;;;14.94;43.60
28701;BME280;15877;52.344;16.790;2023-10-08T11:57:50;101483.64;;;14.83;43.92
28701;BME280;15877;52.344;16.790;2023-10-08T12:00:23;101481.52;;;14.70;44.62
28701;BME280;15877;52.344;16.790;2023-10-08T12:03:03;101482.12;;;14.87;44.81
28701;BME280;15877;52.344;16.790;2023-10-08T12:05:37;101483.31;;;15.02;44.18
28701;BME280;15877;52.344;16.790;2023-10-08T12:08:19;101488.08;;;14.81;45.02
28701;BME280;15877;52.344;16.790;2023-10-08T12:10:53;101488.96;;;15.04;45.35
28701;BME280;15877;52.344;16.790;2023-10-08T12:13:26;101494.84;;;14.98;46.51
28701;BME280;15877;52.344;16.790;2023-10-08T12:16:00;101499.38;;;14.86;45.57
28701;BME280;15877;52.344;16.790;2023-10-08T12:18:37;101499.36;;;15.00;45.77
28701;BME280;15877;52.344;16.790;2023-10-08T12:21:11;101503.89;;;14.84;45.21
28701;BME280;15877;52.344;16.790;2023-10-08T12:23:46;101510.94;;;14.77;45.70
28701;BME280;15877;52.344;16.790;2023-10-08T12:26:21;101515.98;;;14.70;45.54
28701;BME280;15877;52.344;16.790;2023-10-08T12:28:53;101513.86;;;14.58;45.51
28701;BME280;15877;52.344;16.790;2023-10-08T12:31:26;101506.55;;;14.43;45.95
28701;BME280;15877;52.344;16.790;2023-10-08T12:34:00;101509.70;;;14.54;45.86
28701;BME280;15877;52.344;16.790;2023-10-08T12:36:32;101511.54;;;14.43;45.16
28701;BME280;15877;52.344;16.790;2023-10-08T12:39:07;101505.89;;;14.51;45.04
28701;BME280;15877;52.344;16.790;2023-10-08T12:41:47;101508.89;;;14.40;44.98
28701;BME280;15877;52.344;16.790;2023-10-08T12:44:20;101507.87;;;14.41;45.13
28701;BME280;15877;52.344;16.790;2023-10-08T12:46:54;101503.38;;;14.47;44.93
28701;BME280;15877;52.344;16.790;2023-10-08T12:49:30;101499.12;;;14.42;44.26
28701;BME280;15877;52.344;16.790;2023-10-08T12:52:05;101504.55;;;14.32;44.58
28701;BME280;15877;52.344;16.790;2023-10-08T12:54:38;101506.26;;;14.24;45.00
28701;BME280;15877;52.344;16.790;2023-10-08T12:57:16;101502.43;;;14.22;45.21
28701;BME280;15877;52.344;16.790;2023-10-08T12:59:49;101502.01;;;14.17;44.94
28701;BME280;15877;52.344;16.790;2023-10-08T13:02:23;101503.63;;;14.15;45.14
28701;BME280;15877;52.344;16.790;2023-10-08T13:04:59;101500.77;;;14.00;45.86
28701;BME280;15877;52.344;16.790;2023-10-08T13:07:31;101501.72;;;14.21;46.06
28701;BME280;15877;52.344;16.790;2023-10-08T13:10:12;101502.14;;;14.38;46.46
28701;BME280;15877;52.344;16.790;2023-10-08T13:12:46;101495.64;;;14.25;46.30
28701;BME280;15877;52.344;16.790;2023-10-08T13:15:18;101494.27;;;14.26;47.17
28701;BME280;15877;52.344;16.790;2023-10-08T13:17:50;101492.69;;;14.25;47.12
28701;BME280;15877;52.344;16.790;2023-10-08T13:20:23;101495.64;;;14.37;47.27
28701;BME280;15877;52.344;16.790;2023-10-08T13:22:57;101493.27;;;14.30;47.55
28701;BME280;15877;52.344;16.790;2023-10-08T13:25:29;101486.96;;;14.45;48.28
28701;BME280;15877;52.344;16.790;2023-10-08T13:28:06;101485.09;;;14.64;48.13
28701;BME280;15877;52.344;16.790;2023-10-08T13:30:43;101492.63;;;14.81;47.04